Creek Data

    Home     View Charts     View Raw Data     Messages

ID Distance Battery Voltage Battery Current Internal Temp Internal Humidity External Temp Solar Input rssi snr Time Stamp Record
33703 14.9 3.92 -5 55 41 55 0 -74 8 02/28/2025 07:45 PM 15400
33702 14.9 3.98 -5 55 42 56 0 -74 8 02/28/2025 07:30 PM 15399
33701 14.9 3.92 -5 56 42 56 0 -75 8 02/28/2025 07:15 PM 15398
33700 14.9 3.92 -5 58 43 57 0.1 -75 8 02/28/2025 07:00 PM 15397
33699 14.9 3.98 -5 60 43 61 0 -74 8 02/28/2025 06:45 PM 15396
33698 14.9 3.92 -5 62 44 63 0 -74 5 02/28/2025 06:30 PM 15395
33697 14.9 3.98 -5 64 45 65 0.7 -75 8 02/28/2025 06:15 PM 15394
33696 15.0 4.00 5 72 43 68 4.5 -75 7 02/28/2025 05:45 PM 15392
33695 15.0 4.05 10 76 41 70 4.5 -75 7 02/28/2025 05:30 PM 15391
33694 15.0 4.04 6 79 40 71 5.1 -75 8 02/28/2025 05:15 PM 15390
33693 15.0 4.04 6 80 40 72 5.1 -75 7 02/28/2025 05:00 PM 15389
33692 14.9 4.04 6 80 40 73 5.1 -74 8 02/28/2025 04:45 PM 15388
33691 15.0 3.98 0 83 39 73 5.1 -75 7 02/28/2025 04:30 PM 15387
33690 15.0 3.97 6 84 39 74 5.1 -74 8 02/28/2025 04:15 PM 15386
33689 15.0 3.98 6 87 38 74 5.1 -74 7 02/28/2025 04:00 PM 15385
33688 15.0 3.97 0 88 37 74 5.1 -74 7 02/28/2025 03:45 PM 15384
33687 15.1 3.97 0 90 36 75 5.1 -75 8 02/28/2025 03:15 PM 15382
33686 15.1 3.97 0 90 35 74 5.1 -74 7 02/28/2025 02:45 PM 15380
33685 15.1 3.97 7 90 35 76 5.1 -72 8 02/28/2025 02:30 PM 15379
33684 15.1 4.02 7 90 35 73 5.1 -74 8 02/28/2025 02:15 PM 15378
33683 15.1 3.97 0 88 35 74 5.1 -74 7 02/28/2025 02:00 PM 15377
33682 15.1 3.97 0 87 35 74 5.1 -74 8 02/28/2025 01:45 PM 15376
33681 15.1 4.11 7 86 34 76 5.1 -74 8 02/28/2025 01:30 PM 15375
33680 15.1 3.97 7 84 35 72 5.1 -75 8 02/28/2025 01:15 PM 15374
33679 15.1 3.97 0 83 35 71 5.1 -74 7 02/28/2025 01:00 PM 15373